Rhode Island Logo

Providence, RI Single Family Real Estate Listings

232 Total Real Estate Listings * Click on table heading to sort
Date Posted Property Type Style Address Price Living Area Lot Size Price/Sq Ft.
2018-06-19 Single Family Cottage; Historic 43 Messer St Providence, RI 02909 $339,900 1,796 sq. ft. 5,227 sq. ft. $189
2018-06-18 Single Family Contemporary 61 Edgeworth Av Providence, RI 02904 $318,000 1,376 sq. ft. 7,841 sq. ft. $231
2018-06-18 Single Family Bungalow 61 Ardmore Av Providence, RI 02908 $199,900 1,512 sq. ft. 4,792 sq. ft. $132
2018-06-18 Single Family Ranch 16 Cathedral Av Providence, RI 02908 $299,000 1,966 sq. ft. 4,792 sq. ft. $152
2018-06-16 Single Family Ranch 177 Ortoleva Dr Providence, RI 02909 $229,900 1,185 sq. ft. 5,663 sq. ft. $194
2018-06-16 Single Family Colonial 94 Burnside St Providence, RI 02905 $130,000 1,214 sq. ft. 3,920 sq. ft. $107
2018-06-15 Single Family Cape Cod 49 Grape St Providence, RI 02908 $184,900 836 sq. ft. 2,178 sq. ft. $221
2018-06-15 Single Family Bungalow 20 Searle St Providence, RI 02905 $209,900 1,508 sq. ft. 3,049 sq. ft. $139
2018-06-15 Single Family Colonial 25 Loveday St Providence, RI 02908 $186,900 1,165 sq. ft. 3,049 sq. ft. $160
2018-06-14 Single Family Ranch 39 Bel Air Dr Providence, RI 02911 $209,000 875 sq. ft. 4,792 sq. ft. $239
2018-06-14 Single Family Ranch 20 Barrows St Providence, RI 02909 $149,900 852 sq. ft. 3,920 sq. ft. $176
2018-06-14 Single Family Colonial 174 Gano St Providence, RI 02906 $339,900 1,001 sq. ft. 4,792 sq. ft. $340
2018-06-14 Single Family Colonial 30 French St Providence, RI 02905 $189,000 1,632 sq. ft. 3,049 sq. ft. $116
2018-06-14 Single Family Ranch 37 Lyndhurst Av Providence, RI 02908 $225,000 1,461 sq. ft. 4,792 sq. ft. $154
2018-06-13 Single Family Cottage 41 Homer St Providence, RI 02907 $169,900 1,344 sq. ft. 2,178 sq. ft. $126
2018-06-13 Single Family Historic; Victorian 194 Adelaide Av Providence, RI 02907 $324,900 2,778 sq. ft. 4,356 sq. ft. $117
2018-06-13 Single Family Colonial 45 Moorland Av Providence, RI 02908 $299,900 2,058 sq. ft. 4,792 sq. ft. $146
2018-06-13 Single Family Raised Ranch 53 Wilna St Providence, RI 02904 $249,000 1,472 sq. ft. 6,534 sq. ft. $169
2018-06-13 Single Family Bungalow 436 Academy Av Providence, RI 02908 $159,900 1,277 sq. ft. 4,792 sq. ft. $125
2018-06-13 Single Family Ranch 86 Bismark St Providence, RI 02904 $219,900 960 sq. ft. 3,049 sq. ft. $229
2018-06-13 Single Family Cape Cod 31 Opper St Providence, RI 02904 $159,900 1,318 sq. ft. 3,049 sq. ft. $121
2018-06-12 Single Family Cape Cod 280 California Av Providence, RI 02905 $147,500 1,339 sq. ft. 3,049 sq. ft. $110
2018-06-12 Single Family Cape Cod; Colonial 40 Hooker St Providence, RI 02908 $229,000 1,074 sq. ft. 3,485 sq. ft. $213
2018-06-12 Single Family Bungalow 22 Metropolitan Rd Providence, RI 02908 $180,000 792 sq. ft. 3,049 sq. ft. $227
2018-06-11 Single Family Cape Cod; Contemporary 521 River Av Providence, RI 02908 $335,000 3,240 sq. ft. 11,326 sq. ft. $103
2018-06-11 Single Family Colonial 17 Elmcrest Av Providence, RI 02908 $299,000 1,634 sq. ft. 5,227 sq. ft. $183
2018-06-10 Single Family Colonial 286 California Av Providence, RI 02905 $219,900 1,660 sq. ft. 3,049 sq. ft. $132
2018-06-09 Single Family Raised Ranch 12 Ortoleva Dr Providence, RI 02908 $275,000 1,000 sq. ft. 436 sq. ft. $275
2018-06-08 Single Family Raised Ranch 14 Pennsylvania Av Providence, RI 02905 $134,900 1,050 sq. ft. 3,920 sq. ft. $128
2018-06-08 Single Family Ranch 40 Lakeview Dr Providence, RI 02910 $289,000 1,288 sq. ft. 9,583 sq. ft. $224
2018-06-08 Single Family Bungalow 26 Delmar Av Providence, RI 02907 $220,000 2,358 sq. ft. 3,485 sq. ft. $93
2018-06-07 Single Family Ranch 36 Baltimore St Providence, RI 02909 $154,900 960 sq. ft. 3,049 sq. ft. $161
2018-06-07 Single Family Bungalow 118 Lowell Av Providence, RI 02909 $175,000 1,204 sq. ft. 3,920 sq. ft. $145
2018-06-07 Single Family Colonial 7 Ticknor St Providence, RI 02909 $150,000 1,050 sq. ft. 3,049 sq. ft. $143
2018-06-07 Single Family Cottage; Historic 12 Bianco Ct Providence, RI 02909 $349,000 1,440 sq. ft. 1,742 sq. ft. $242
2018-06-06 Single Family Cape Cod 39 Walton St Providence, RI 02908 $249,000 1,274 sq. ft. 7,841 sq. ft. $195
2018-06-06 Single Family Bungalow 176 Jastram St Providence, RI 02908 $234,900 1,200 sq. ft. 4,792 sq. ft. $196
2018-06-06 Single Family Ranch 44 Horace St Providence, RI 02909 $169,900 1,040 sq. ft. 7,405 sq. ft. $163
2018-06-06 Single Family Raised Ranch 4 Cloud St Providence, RI 02909 $250,000 1,008 sq. ft. 4,356 sq. ft. $248
2018-06-05 Single Family Cape Cod 117 Argol St Providence, RI 02904 $205,000 1,075 sq. ft. 4,356 sq. ft. $191
2018-06-05 Single Family Raised Ranch 33 Lecia Dr Providence, RI 02909 $259,900 1,200 sq. ft. 6,970 sq. ft. $217
2018-06-05 Single Family Bungalow 191 Cumberland St Providence, RI 02908 $150,000 922 sq. ft. 3,485 sq. ft. $163
2018-06-05 Single Family Cape Cod 100 Pocasset Av Providence, RI 02909 $95,000 893 sq. ft. 1,307 sq. ft. $106
2018-06-05 Single Family Bungalow 73 Gentian Av Providence, RI 02908 $305,000 1,784 sq. ft. 4,792 sq. ft. $171
2018-06-05 Single Family Colonial 1003 Douglas Av Providence, RI 02904 $199,000 1,664 sq. ft. 3,485 sq. ft. $120
2018-06-05 Single Family Cape Cod 7 Dutton St Providence, RI 02909 $184,900 1,414 sq. ft. 3,049 sq. ft. $131
2018-06-04 Single Family Colonial 28 Hilltop Av Providence, RI 02908 $359,900 1,950 sq. ft. 4,356 sq. ft. $185
2018-06-04 Single Family Ranch 194 Salina St Providence, RI 02908 $164,900 1,032 sq. ft. 3,920 sq. ft. $160
2018-06-04 Single Family Contemporary 58 Ashmont St Providence, RI 02905 $219,000 1,200 sq. ft. 3,485 sq. ft. $182
2018-06-04 Single Family Cape Cod 75 General St Providence, RI 02904 $174,900 1,174 sq. ft. 3,920 sq. ft. $149
2018-06-04 Single Family Colonial 83 Daniel Av Providence, RI 02909 $199,999 1,400 sq. ft. 3,049 sq. ft. $143
2018-06-04 Single Family Colonial 38 Cathedral Av Providence, RI 02908 $319,900 1,400 sq. ft. 4,792 sq. ft. $228
2018-06-02 Single Family Ranch 100 Eliza St Providence, RI 02909 $159,900 1,008 sq. ft. 3,049 sq. ft. $159
2018-06-02 Single Family Colonial 365 Mount Pleasant Av Providence, RI 02908 $259,900 1,868 sq. ft. 6,098 sq. ft. $139
2018-06-02 Single Family Ranch 30 Galileo Av Providence, RI 02909 $184,900 997 sq. ft. 3,049 sq. ft. $185
2018-06-02 Single Family Colonial 70 Swift St Providence, RI 02904 $169,000 966 sq. ft. 3,920 sq. ft. $175
2018-06-01 Single Family Cape Cod 951 Douglas Av Providence, RI 02908 $109,900 1,700 sq. ft. 10,454 sq. ft. $65
2018-06-01 Single Family Ranch 16 Brookfield St Providence, RI 02909 $119,900 648 sq. ft. 5,227 sq. ft. $185
2018-06-01 Single Family Ranch 696 Charles St Providence, RI 02904 $106,900 984 sq. ft. 3,920 sq. ft. $109
2018-05-31 Single Family Colonial 125 Reservoir Av Providence, RI 02907 $194,900 1,347 sq. ft. 3,049 sq. ft. $145
2018-05-31 Single Family Ranch 85 Funston Av Providence, RI 02908 $179,900 960 sq. ft. 3,049 sq. ft. $187
2018-05-30 Single Family Cottage 21 Dunford St Providence, RI 02909 $199,900 1,472 sq. ft. 3,485 sq. ft. $136
2018-05-30 Single Family Colonial 189 Ives St Providence, RI 02906 $299,900 874 sq. ft. 2,614 sq. ft. $343
2018-05-30 Single Family Bungalow 27 Delmar Av Providence, RI 02907 $179,711 1,076 sq. ft. 4,792 sq. ft. $167
2018-05-30 Single Family Bungalow 24 Biltmore Av Providence, RI 02908 $214,900 1,125 sq. ft. 3,049 sq. ft. $191
2018-05-29 Single Family Colonial 246 Roger Williams Av Providence, RI 02907 $189,900 1,286 sq. ft. 3,485 sq. ft. $148
2018-05-29 Single Family Ranch 82 Nelson St Providence, RI 02908 $235,000 1,374 sq. ft. 5,227 sq. ft. $171
2018-05-28 Single Family Bungalow 874 River St Providence, RI 02908 $219,000 1,176 sq. ft. 6,534 sq. ft. $186
2018-05-27 Single Family Cape Cod 50 Moorland Av Providence, RI 02908 $255,000 1,505 sq. ft. 4,792 sq. ft. $169
2018-05-26 Single Family Raised Ranch 50 Alicant St Providence, RI 02908 $369,900 1,538 sq. ft. 12,632 sq. ft. $241
2018-05-25 Single Family Bungalow 61 Babcock St Providence, RI 02905 $179,900 1,300 sq. ft. 3,049 sq. ft. $138
2018-05-25 Single Family 39 Gillen St Providence, RI 02904 $89,900 1,496 sq. ft. 3,920 sq. ft. $60
2018-05-25 Single Family Bungalow 120 Bradley St Providence, RI 02908 $235,000 1,100 sq. ft. 3,920 sq. ft. $214
2018-05-25 Single Family Raised Ranch 117 Babcock St Providence, RI 02905 $249,900 3,049 sq. ft. 3,049 sq. ft. $82
2018-05-24 Single Family Ranch 47 Huxley Av Providence, RI 02908 $180,000 1,008 sq. ft. 4,792 sq. ft. $179
2018-05-24 Single Family Cape Cod 25 Carr St Providence, RI 02905 $199,900 1,291 sq. ft. 3,049 sq. ft. $155
2018-05-24 Single Family Colonial 146 Burnside St Providence, RI 02905 $175,000 819 sq. ft. 3,920 sq. ft. $214
2018-05-24 Single Family Colonial 62 Klondike St Providence, RI 02909 $299,900 1,956 sq. ft. 19,166 sq. ft. $153
2018-05-23 Single Family Ranch 55 Freedom Rd Providence, RI 02909 $232,500 2,156 sq. ft. 8,276 sq. ft. $108
2018-05-23 Single Family Cape Cod 368 Jastram St Providence, RI 02908 $179,900 1,040 sq. ft. 4,792 sq. ft. $173
2018-05-23 Single Family Ranch 61 Brush Hill Rd Providence, RI 02909 $159,900 936 sq. ft. 3,049 sq. ft. $171
2018-05-23 Single Family Raised Ranch 106 Cass St Providence, RI 02905 $179,900 1,092 sq. ft. 6,098 sq. ft. $165
2018-05-22 Single Family Bungalow 41 Atwood St Providence, RI 02909 $149,900 1,406 sq. ft. 3,485 sq. ft. $107
2018-05-22 Single Family Raised Ranch 44 Greeley St Providence, RI 02904 $209,900 1,066 sq. ft. 2,178 sq. ft. $197
2018-05-22 Single Family 72 Eliza St Providence, RI 02909 $169,900 1,008 sq. ft. 6,534 sq. ft. $169
2018-05-21 Single Family Bungalow 171 Modena Av Providence, RI 02908 $269,900 1,521 sq. ft. 4,792 sq. ft. $177
2018-05-21 Single Family Ranch 27 Metroploitan Rd Providence, RI 02908 $159,900 816 sq. ft. 3,049 sq. ft. $196
2018-05-21 Single Family Ranch 94 Freese St Providence, RI 02908 $225,000 1,020 sq. ft. 5,663 sq. ft. $221
2018-05-21 Single Family Bungalow 50 Grosvenor Av Providence, RI 02908 $199,999 1,123 sq. ft. 3,049 sq. ft. $178
2018-05-21 Single Family Colonial 91 Hawkins St Providence, RI 02908 $164,900 1,103 sq. ft. 3,049 sq. ft. $150
2018-05-18 Single Family Colonial 20 Bowdoin St Providence, RI 02909 $167,500 900 sq. ft. 3,920 sq. ft. $186
2018-05-18 Single Family Ranch 14 Kentland Av Providence, RI 02904 $184,900 1,128 sq. ft. 3,920 sq. ft. $164
2018-05-18 Single Family Ranch 175 Ortoleva Dr Providence, RI 02909 $214,999 1,280 sq. ft. 5,663 sq. ft. $168
2018-05-18 Single Family Colonial 58 Huron St Providence, RI 02908 $189,000 1,512 sq. ft. 3,485 sq. ft. $125
2018-05-17 Single Family Colonial 139 Carr St Providence, RI 02905 $279,900 1,612 sq. ft. 3,049 sq. ft. $174
2018-05-17 Single Family Bungalow 245 River Av Providence, RI 02908 $179,900 1,040 sq. ft. 3,049 sq. ft. $173
2018-05-17 Single Family Colonial 24 Elmcrest Av Providence, RI 02908 $429,900 2,382 sq. ft. 6,970 sq. ft. $180
2018-05-17 Single Family Colonial 41 Hamlin St Providence, RI 02907 $209,900 1,129 sq. ft. 3,920 sq. ft. $186
2018-05-17 Single Family Cottage 5 Udell St Providence, RI 02904 $214,900 1,286 sq. ft. 7,841 sq. ft. $167
2018-05-16 Single Family Victorian 63 Whitmarsh St Providence, RI 02907 $335,500 2,274 sq. ft. 4,356 sq. ft. $148
2018-05-16 Single Family Cape Cod 42 Prosper St Providence, RI 02904 $224,900 1,092 sq. ft. 6,098 sq. ft. $206
2018-05-16 Single Family Colonial 84 Glover St Providence, RI 02908 $230,000 1,720 sq. ft. 5,227 sq. ft. $134
2018-05-16 Single Family Colonial 58 Trask St Providence, RI 02905 $179,900 1,650 sq. ft. 3,920 sq. ft. $109
2018-05-16 Single Family Cape Cod 26 Stonelaw Av Providence, RI 02908 $219,000 1,310 sq. ft. 3,485 sq. ft. $167
2018-05-15 Single Family 195 Oakland Av Providence, RI 02908 $169,900 1,394 sq. ft. 2,614 sq. ft. $122
2018-05-15 Single Family Colonial 36 Grand St Providence, RI 02907 $134,900 1,336 sq. ft. 3,049 sq. ft. $101
2018-05-15 Single Family Cape Cod 46 Rome Av Providence, RI 02908 $199,900 1,055 sq. ft. 3,920 sq. ft. $189
2018-05-15 Single Family Ranch 58 Sisson St Providence, RI 02908 $169,900 1,178 sq. ft. 3,049 sq. ft. $144
2018-05-15 Single Family Bungalow 47 Amory St Providence, RI 02904 $179,900 1,217 sq. ft. 5,227 sq. ft. $148
2018-05-15 Single Family Ranch Providence, RI $189,900 1,036 sq. ft. 3,049 sq. ft. $183
2018-05-15 Single Family Ranch 17 Horace St Providence, RI 02909 $169,000 750 sq. ft. 6,098 sq. ft. $225
2018-05-15 Single Family Cape Cod 71 Corina St Providence, RI 02908 $185,000 1,796 sq. ft. 3,049 sq. ft. $103
2018-05-15 Single Family Bungalow 67 Sisson St Providence, RI 02909 $225,000 1,200 sq. ft. 5,227 sq. ft. $188
2018-05-14 Single Family Split Level 490 Union Av Providence, RI 02909 $239,900 1,383 sq. ft. 8,712 sq. ft. $173
2018-05-14 Single Family Colonial 172 Oakland Av Providence, RI 02908 $299,000 2,687 sq. ft. 3,920 sq. ft. $111
2018-05-14 Single Family Colonial 99 Moore St Providence, RI 02907 $285,000 2,375 sq. ft. 4,356 sq. ft. $120
2018-05-11 Single Family Colonial 294 Langdon St Providence, RI 02904 $289,000 1,680 sq. ft. 3,485 sq. ft. $172
2018-05-10 Single Family Colonial 39 Hymer St Providence, RI 02908 $249,000 1,700 sq. ft. 3,049 sq. ft. $146
2018-05-10 Single Family Colonial 165 Windmill St Providence, RI 02904 $329,000 2,000 sq. ft. 10,019 sq. ft. $164
2018-05-10 Single Family Cottage; Historic 4 Theresa Ct Providence, RI 02909 $339,900 1,120 sq. ft. 1,742 sq. ft. $303
2018-05-09 Single Family Bungalow 77 Wabun Av Providence, RI 02908 $220,000 1,904 sq. ft. 4,792 sq. ft. $116
2018-05-09 Single Family Colonial 88 Pekin St Providence, RI 02908 $199,000 1,138 sq. ft. 2,178 sq. ft. $175
2018-05-08 Single Family Bungalow 71 Marion Av Providence, RI 02905 $208,900 1,412 sq. ft. 3,485 sq. ft. $148
2018-05-08 Single Family Colonial 49 Waverly St Providence, RI 02907 $238,000 1,584 sq. ft. 3,920 sq. ft. $150
2018-05-08 Single Family Ranch 867 Plainfield St Providence, RI 02909 $269,900 1,949 sq. ft. 28,314 sq. ft. $138
2018-05-08 Single Family Colonial 8 Milo St Providence, RI 02909 $224,900 1,440 sq. ft. 4,356 sq. ft. $156
2018-05-08 Single Family Colonial 7 Pemberton St Providence, RI 02908 $189,900 1,596 sq. ft. 0 sq. ft. $119
2018-05-08 Single Family Ranch 108 Standish St Providence, RI 02908 $199,000 1,050 sq. ft. 3,049 sq. ft. $190
2018-05-08 Single Family Colonial 94 Radcliffe Av Providence, RI 02908 $234,900 1,813 sq. ft. 3,485 sq. ft. $130
2018-05-08 Single Family Bungalow 108 Nelson St Providence, RI 02908 $219,000 1,101 sq. ft. 7,405 sq. ft. $199
2018-05-08 Single Family Cape Cod 48 Enfield Av Providence, RI 02908 $249,000 1,482 sq. ft. 4,356 sq. ft. $168
2018-05-08 Single Family Colonial; Victorian 139 Langdon St Providence, RI 02904 $219,900 1,506 sq. ft. 4,792 sq. ft. $146
2018-05-08 Single Family Ranch 1 Ralston St Providence, RI 02904 $248,000 1,136 sq. ft. 7,405 sq. ft. $218
2018-05-08 Single Family 27 Grand St Providence, RI 02907 $139,900 1,114 sq. ft. 3,049 sq. ft. $126
2018-05-08 Single Family Bungalow 66 Whitehall St Providence, RI 02909 $169,900 1,040 sq. ft. 3,920 sq. ft. $163
2018-05-08 Single Family Ranch 106 Wilson St Providence, RI 02907 $152,000 1,344 sq. ft. 3,920 sq. ft. $113
2018-04-27 Single Family Cape Cod 20 Fairbanks St Providence, RI 02908 $255,000 1,690 sq. ft. 4,792 sq. ft. $151
2018-04-26 Single Family Ranch 5 Woodfall St Providence, RI 02909 $189,900 1,008 sq. ft. 3,049 sq. ft. $188
2018-04-25 Single Family Cape Cod 79 Glover St Providence, RI 02908 $179,900 936 sq. ft. 3,049 sq. ft. $192
2018-04-24 Single Family Ranch 41 Edgeworth Av Providence, RI 02904 $199,900 1,136 sq. ft. 9,148 sq. ft. $176
2018-04-23 Single Family Ranch 127 Johnson St Providence, RI 02905 $170,000 1,008 sq. ft. 3,920 sq. ft. $169
2018-04-21 Single Family Cape Cod 10 Sacramento St Providence, RI 02909 $159,900 1,244 sq. ft. 5,663 sq. ft. $129
2018-04-20 Single Family Ranch 58 Commodore St Providence, RI 02904 $192,000 1,008 sq. ft. 3,049 sq. ft. $190
2018-04-20 Single Family Ranch 141 Standish Av Providence, RI 02908 $224,900 1,092 sq. ft. 7,841 sq. ft. $206
2018-04-19 Single Family Bungalow 161 Lynch St Providence, RI 02908 $200,000 1,248 sq. ft. 3,920 sq. ft. $160
2018-04-19 Single Family Colonial 58 Carteret St Providence, RI 02908 $299,500 1,758 sq. ft. 3,920 sq. ft. $170
2018-04-18 Single Family 1006 Atwells Av Providence, RI 02909 $129,900 840 sq. ft. 3,049 sq. ft. $155
2018-04-17 Single Family Cape Cod 32 Kinfield St Providence, RI 02909 $209,900 1,295 sq. ft. 4,792 sq. ft. $162
2018-04-16 Single Family Bungalow 45 Sisson St Providence, RI 02909 $174,900 1,248 sq. ft. 3,049 sq. ft. $140
2018-04-16 Single Family Ranch 140 Eliza St Providence, RI 02909 $159,900 960 sq. ft. 4,792 sq. ft. $167
2018-04-15 Single Family Ranch 18 - 14 Jasper St Providence, RI 02904 $220,000 1,285 sq. ft. 6,534 sq. ft. $171
2018-04-14 Single Family Bungalow 685 River Av Providence, RI 02908 $265,000 1,555 sq. ft. 4,356 sq. ft. $170
2018-04-12 Single Family Bungalow 124 Warrington St Providence, RI 02907 $149,900 1,453 sq. ft. 4,792 sq. ft. $103
2018-04-11 Single Family Cape Cod; Contemporary 2 Rosebank Dr Providence, RI 02908 $519,000 4,860 sq. ft. 18,731 sq. ft. $107
2018-04-11 Single Family Raised Ranch 13 Case Lane Providence, RI 02909 $249,900 1,198 sq. ft. 3,920 sq. ft. $209
2018-04-10 Single Family Bungalow 256 Oconnor St Providence, RI 02905 $235,000 2,400 sq. ft. 5,227 sq. ft. $98
2018-04-10 Single Family 113 Oakland Av Providence, RI 02908 $199,000 1,358 sq. ft. 3,920 sq. ft. $147
2018-04-06 Single Family Cape Cod 33 Spokane St Providence, RI 02904 $187,000 1,008 sq. ft. 6,098 sq. ft. $186
2018-04-04 Single Family Ranch 666 River Av Providence, RI 02908 $229,900 1,266 sq. ft. 8,276 sq. ft. $182
2018-04-03 Single Family Colonial 98 Killingly St Providence, RI 02909 $279,900 1,536 sq. ft. 6,098 sq. ft. $182
2018-04-03 Single Family 137 Early St Providence, RI 02907 $169,900 1,152 sq. ft. 3,049 sq. ft. $147
2018-04-02 Single Family Colonial 42 Burnside St Providence, RI 02905 $169,900 1,200 sq. ft. 4,356 sq. ft. $142
2018-04-02 Single Family Bungalow 58 Mitchell St Providence, RI 02907 $179,900 1,075 sq. ft. 4,792 sq. ft. $167
2018-04-02 Single Family Ranch 65 Columbus St Providence, RI 02908 $139,000 1,100 sq. ft. 6,534 sq. ft. $126
2018-04-02 Single Family Bungalow; Cottage 48 De Soto St Providence, RI 02909 $152,000 924 sq. ft. 7,405 sq. ft. $164
2018-04-01 Single Family Colonial 103 Sunset Av Providence, RI 02909 $235,000 1,584 sq. ft. 4,792 sq. ft. $148
2018-03-29 Single Family Colonial 118 Modena Av Providence, RI 02908 $259,900 1,341 sq. ft. 3,920 sq. ft. $194
2018-03-29 Single Family Colonial 572 Potters Av Providence, RI 02907 $184,500 1,616 sq. ft. 3,049 sq. ft. $114
2018-03-22 Single Family Cape Cod 16 What Cheer Av Providence, RI 02909 $174,900 1,230 sq. ft. 2,178 sq. ft. $142
2018-03-21 Single Family Cottage; Victorian 183 Alabama Av Providence, RI 02905 $239,900 1,200 sq. ft. 6,534 sq. ft. $200
2018-03-20 Single Family Cape Cod 93 Bowlet St Providence, RI 02909 $159,900 1,165 sq. ft. 4,356 sq. ft. $137
2018-03-17 Single Family Bungalow 222 Sterling Av Providence, RI 02909 $159,900 1,230 sq. ft. 3,920 sq. ft. $130
2018-03-16 Single Family 145 Magnolia St Providence, RI 02909 $169,000 2,165 sq. ft. 3,049 sq. ft. $78
2018-03-15 Single Family Contemporary 387 Blackstone St Providence, RI 02907 $165,000 1,540 sq. ft. 5,663 sq. ft. $107
2018-03-14 Single Family Bungalow; Cape Cod 71 Stansbury St Providence, RI 02904 $198,000 1,212 sq. ft. 4,356 sq. ft. $163
2018-03-14 Single Family Colonial 92 Dover St Providence, RI 02908 $285,000 2,574 sq. ft. 6,534 sq. ft. $111
2018-03-12 Single Family Raised Ranch 973 Douglas Av Providence, RI 02908 $269,900 1,288 sq. ft. 4,792 sq. ft. $210
2018-03-11 Single Family Colonial 134 Verndale Av Providence, RI 02905 $212,900 1,240 sq. ft. 3,485 sq. ft. $172
2018-03-08 Single Family Cottage 65 Wallace St Providence, RI 02909 $220,000 2,268 sq. ft. 3,920 sq. ft. $97
2018-03-05 Single Family Colonial 27 Benedict St Providence, RI 02907 $154,900 874 sq. ft. 3,920 sq. ft. $177
2018-03-05 Single Family Ranch 60 Columbus St Providence, RI 02908 $169,900 960 sq. ft. 3,049 sq. ft. $177
2018-03-01 Single Family 6 Gallup St Providence, RI 02905 $59,900 868 sq. ft. 3,049 sq. ft. $69
2018-03-01 Single Family Bungalow 53 Carolina Av Providence, RI 02905 $179,000 1,000 sq. ft. 3,049 sq. ft. $179
2018-02-28 Single Family Colonial 72 Middleton St Providence, RI 02909 $249,900 1,536 sq. ft. 4,792 sq. ft. $163
2018-02-27 Single Family Colonial; Cottage 98 Pocasset Av Providence, RI 02909 $169,000 1,741 sq. ft. 3,485 sq. ft. $97
2018-02-16 Single Family Cape Cod 422 Prairie Av Providence, RI 02905 $109,500 1,377 sq. ft. 3,049 sq. ft. $80
2018-02-16 Single Family Colonial 134 Houston St Providence, RI 02905 $105,000 1,497 sq. ft. 3,049 sq. ft. $70
2018-02-12 Single Family Bungalow; Cape Cod 29 Windmill St Providence, RI 02904 $199,900 1,175 sq. ft. 0 sq. ft. $170
2018-02-07 Single Family Cottage 36 Berlin St Providence, RI 02908 $135,000 1,366 sq. ft. 0 sq. ft. $99
2018-02-06 Single Family Cottage 24 Concannon St Providence, RI 02904 $139,900 1,030 sq. ft. 4,792 sq. ft. $136
2018-01-31 Single Family Colonial 592 Manton Av Providence, RI 02909 $239,900 1,536 sq. ft. 4,792 sq. ft. $156
2018-01-30 Single Family Colonial 12 Drill St Providence, RI 02908 $154,900 2,660 sq. ft. 5,227 sq. ft. $58
2018-01-30 Single Family Bungalow 161 Peace St Providence, RI 02907 $179,900 1,684 sq. ft. 3,485 sq. ft. $107
2018-01-25 Single Family Colonial 56 Corinth St Providence, RI 02907 $209,900 2,897 sq. ft. 4,792 sq. ft. $72
2018-01-23 Single Family Single Family-Attached 24 Bridgham St Providence, RI 02907 $150,000 1,310 sq. ft. 1,307 sq. ft. $114
2018-01-11 Single Family Bungalow 186 Calla St Providence, RI 02905 $209,000 1,310 sq. ft. 3,485 sq. ft. $160
2018-01-10 Single Family Colonial 115 Calla St Providence, RI 02905 $229,900 1,450 sq. ft. 5,227 sq. ft. $159
2018-01-08 Single Family Colonial 146 Lakeview Dr Providence, RI 02910 $249,000 1,280 sq. ft. 9,148 sq. ft. $195
2017-12-12 Single Family Colonial 47 Cathedral Av Providence, RI 02908 $249,000 1,884 sq. ft. 4,792 sq. ft. $132
2017-12-06 Single Family Colonial 21 Judith St Providence, RI 02909 $79,900 616 sq. ft. 3,049 sq. ft. $130
2017-11-29 Single Family Colonial 43 Grape St Providence, RI 02908 $120,000 2,170 sq. ft. 2,614 sq. ft. $55
2017-11-20 Single Family 13 Greeley St Providence, RI 02904 $155,000 1,162 sq. ft. 3,049 sq. ft. $133
2017-11-17 Single Family Bungalow; Cape Cod 162 Roger Williams Av Providence, RI 02907 $80,000 1,114 sq. ft. 2,614 sq. ft. $72
2017-10-27 Single Family Cape Cod 202 Whittier Av Providence, RI 02909 $189,900 1,240 sq. ft. 3,920 sq. ft. $153
2017-10-27 Single Family Colonial 44 Winthrop Av Providence, RI 02908 $125,000 1,310 sq. ft. 4,792 sq. ft. $95
2017-10-21 Single Family Colonial 9 Applegate Lane Providence, RI 02905 $184,900 1,386 sq. ft. 2,614 sq. ft. $133
2017-10-04 Single Family 95 Providence St Providence, RI 02907 $179,900 1,620 sq. ft. 4,792 sq. ft. $111
2017-09-28 Single Family Cape Cod 32 Malvern St Providence, RI 02904 $207,000 1,766 sq. ft. 9,583 sq. ft. $117
2017-09-16 Single Family Colonial 81 River Av Providence, RI 02908 $134,900 1,602 sq. ft. 3,920 sq. ft. $84
2017-09-13 Single Family Colonial; Cottage 69 - 61,71 Thornton St Providence, RI 02909 $190,000 1,636 sq. ft. 8,276 sq. ft. $116
2017-09-12 Single Family Colonial 77 River Av Providence, RI 02908 $114,000 1,026 sq. ft. 3,485 sq. ft. $111
2017-09-11 Single Family Cottage 52 Borinquen St Providence, RI 02905 $129,900 1,266 sq. ft. 7,405 sq. ft. $103
2017-09-06 Single Family Cottage 43 Grand St Providence, RI 02907 $164,000 1,018 sq. ft. 3,049 sq. ft. $161
2017-09-05 Single Family Colonial 14 Gallup St Providence, RI 02905 $129,900 1,232 sq. ft. 3,049 sq. ft. $105
2017-08-24 Single Family Ranch 19 Bassi Lane Providence, RI 02909 $219,900 1,712 sq. ft. 13,068 sq. ft. $128
2017-08-20 Single Family Colonial 101 Corinth St Providence, RI 02907 $60,000 1,391 sq. ft. 4,792 sq. ft. $43
2017-08-14 Single Family Victorian 68 Pitman St Providence, RI 02906 $399,000 1,119 sq. ft. 7,841 sq. ft. $357
2017-08-08 Single Family Ranch 62 Gray St Providence, RI 02909 $221,000 1,400 sq. ft. 4,356 sq. ft. $158
2017-07-06 Single Family Ranch 335 Hawkins St Providence, RI 02904 $109,350 1,196 sq. ft. 3,920 sq. ft. $91
2017-07-06 Single Family Ranch 9 Evelyn St Providence, RI 02909 $189,000 1,056 sq. ft. 6,970 sq. ft. $179
2017-07-03 Single Family Colonial; Victorian 130 Mount Pleasant Av Providence, RI 02908 $159,900 1,362 sq. ft. 6,534 sq. ft. $117
2017-06-26 Single Family Bungalow 263 California Av Providence, RI 02905 $139,900 1,508 sq. ft. 3,049 sq. ft. $93
2017-05-20 Single Family Split Level 86 Erie St Providence, RI 02908 $289,900 1,387 sq. ft. 6,098 sq. ft. $209
2017-05-03 Single Family Ranch 24 Brockton St Providence, RI 02904 $179,000 1,258 sq. ft. 6,534 sq. ft. $142
2017-03-30 Single Family Victorian 137 Wallace St Providence, RI 02909 $199,900 2,346 sq. ft. 3,920 sq. ft. $85
2017-03-28 Single Family Colonial 23 Annie St Providence, RI 02908 $279,900 1,560 sq. ft. 3,920 sq. ft. $179
2017-03-27 Single Family Bungalow 126 Washington Av Providence, RI 02905 $119,900 840 sq. ft. 3,485 sq. ft. $143
2017-03-21 Single Family Colonial 37 Homer St Providence, RI 02905 $90,000 3,049 sq. ft.
2017-03-15 Single Family Contemporary 92 Seamans St Providence, RI 02908 $199,000 1,082 sq. ft. 8,276 sq. ft. $184
2017-03-07 Single Family Colonial 122 Laban St Providence, RI 02909 $249,900 1,768 sq. ft. 10,019 sq. ft. $141
2017-02-21 Single Family Raised Ranch 51 Alicant St Providence, RI 02908 $259,000 1,470 sq. ft. 10,890 sq. ft. $176
2016-06-22 Single Family Cape Cod 115 Pocasset Av Providence, RI 02909 $138,000 1,944 sq. ft. 4,792 sq. ft. $71